Terminal Aerodrome Forecast
Issued by NWS Los Angeles, CA

Home | Current Version | Previous Version | Text Only | Print | Product List | Glossary On
Versions: 1 2 3 4 5 6 7 8 9 10 11 12 13 14 15 16 17 18 19 20 21 22 23 24 25 26 27
000
FTUS46 KLOX 031132
TAFSMX
TAF
KSMX 031132Z 0312/0412 VRB03KT P6SM OVC012
     FM031400 VRB03KT 6SM BR OVC010
     FM031600 31006KT P6SM SCT014
     FM032000 31014G22KT P6SM SKC
     FM040200 30010KT P6SM SCT009
     FM040400 30006KT P6SM BKN010
     FM040800 VRB03KT 6SM BR OVC006=

USA.gov is the U.S. government's official web portal to all federal, state and local government web resources and services.